createdAt,value
2023-07-25T00:04:32.577Z,12.60
2023-07-25T00:09:34.423Z,13.70
2023-07-25T00:14:36.697Z,13.80
2023-07-25T00:19:38.764Z,20.60
2023-07-25T00:24:40.620Z,18.20
2023-07-25T00:29:42.578Z,17.10
2023-07-25T00:34:44.442Z,12.70
2023-07-25T00:39:46.340Z,13.40
2023-07-25T00:44:48.242Z,12.30
2023-07-25T00:49:51.426Z,13.40
2023-07-25T00:54:53.324Z,11.50
2023-07-25T00:59:55.185Z,12.60
2023-07-25T01:04:57.108Z,13.70
2023-07-25T01:09:58.979Z,13.10
2023-07-25T01:15:00.932Z,13.60
2023-07-25T01:20:03.444Z,17.10
2023-07-25T01:25:08.414Z,17.30
2023-07-25T01:30:10.428Z,14.90
2023-07-25T01:35:12.503Z,12.30
2023-07-25T01:40:14.400Z,12.60
2023-07-25T01:45:16.318Z,14.60
2023-07-25T01:50:18.310Z,12.40
2023-07-25T01:55:20.897Z,12.40
2023-07-25T02:00:22.887Z,16.10
2023-07-25T02:05:26.265Z,16.40
2023-07-25T02:10:28.966Z,16.10
2023-07-25T02:15:30.845Z,13.50
2023-07-25T02:20:33.896Z,12.70
2023-07-25T02:25:35.870Z,11.10
2023-07-25T02:30:37.679Z,15.90
2023-07-25T02:35:39.831Z,11.70
2023-07-25T02:40:41.845Z,13.40
2023-07-25T02:45:43.910Z,13.60
2023-07-25T02:50:46.174Z,14.70
2023-07-25T02:55:47.973Z,16.20
2023-07-25T03:00:49.852Z,13.00
2023-07-25T03:05:52.008Z,17.80
2023-07-25T03:10:53.922Z,16.20
2023-07-25T03:15:55.802Z,20.50
2023-07-25T03:20:57.626Z,14.50
2023-07-25T03:25:59.881Z,21.50
2023-07-25T03:31:02.164Z,15.00
2023-07-25T03:36:05.131Z,16.90
2023-07-25T03:41:07.690Z,14.40
2023-07-25T03:46:09.723Z,13.80
2023-07-25T03:51:12.126Z,14.60
2023-07-25T03:56:13.999Z,17.00
2023-07-25T04:01:15.837Z,15.30
2023-07-25T04:06:19.104Z,17.90
2023-07-25T04:11:21.059Z,14.80
2023-07-25T04:16:23.515Z,11.10
2023-07-25T04:21:25.416Z,18.30
2023-07-25T04:26:27.398Z,12.30
2023-07-25T04:31:29.300Z,15.30
2023-07-25T04:36:31.545Z,15.20
2023-07-25T04:41:34.343Z,12.10
2023-07-25T04:46:36.439Z,18.60
2023-07-25T04:51:39.999Z,11.90
2023-07-25T04:56:42.436Z,14.10
2023-07-25T05:01:44.295Z,11.70
2023-07-25T05:06:46.277Z,10.50
2023-07-25T05:11:48.637Z,18.00
2023-07-25T05:16:50.406Z,11.80
2023-07-25T05:21:59.265Z,11.00
2023-07-25T05:27:01.365Z,11.20
2023-07-25T05:32:03.229Z,13.30
2023-07-25T05:37:06.444Z,9.30
2023-07-25T05:42:08.639Z,10.60
2023-07-25T05:47:10.387Z,11.30
2023-07-25T05:52:12.297Z,13.30
2023-07-25T05:57:14.340Z,8.60
2023-07-25T06:02:17.721Z,10.10
2023-07-25T06:07:20.703Z,7.50
2023-07-25T06:12:24.660Z,12.00
2023-07-25T06:17:26.483Z,10.40
2023-07-25T06:22:28.384Z,13.70
2023-07-25T06:27:30.191Z,9.10
2023-07-25T06:32:32.181Z,8.70
2023-07-25T06:37:35.072Z,9.70
2023-07-25T06:42:39.071Z,9.40
2023-07-25T06:47:40.988Z,7.00
2023-07-25T06:52:43.143Z,6.70
2023-07-25T06:57:44.985Z,8.90
2023-07-25T07:02:46.966Z,9.90
2023-07-25T07:07:49.295Z,6.70
2023-07-25T07:17:54.354Z,7.90
2023-07-25T07:22:56.294Z,7.80
2023-07-25T07:27:58.104Z,7.30
2023-07-25T07:33:00.745Z,9.00
2023-07-25T07:38:02.821Z,7.40
2023-07-25T07:43:05.128Z,6.50
2023-07-25T07:48:06.920Z,7.80
2023-07-25T07:53:08.765Z,6.20
2023-07-25T07:58:10.944Z,7.50
2023-07-25T08:03:12.871Z,7.00
2023-07-25T08:08:17.565Z,6.80
2023-07-25T08:13:19.754Z,6.40
2023-07-25T08:18:21.581Z,10.40
2023-07-25T08:23:23.839Z,8.70
2023-07-25T08:28:25.683Z,8.60
2023-07-25T08:38:30.074Z,7.80
2023-07-25T08:43:37.871Z,8.30
2023-07-25T08:48:41.907Z,5.80
2023-07-25T08:53:57.321Z,7.60
2023-07-25T08:58:59.959Z,4.80
2023-07-25T09:04:03.291Z,5.40
2023-07-25T09:09:06.207Z,4.80
2023-07-25T09:14:08.242Z,4.80
2023-07-25T09:19:10.468Z,5.30
2023-07-25T09:24:12.396Z,5.10
2023-07-25T09:29:14.185Z,5.00
2023-07-25T09:39:21.233Z,4.80
2023-07-25T09:44:23.491Z,6.60
2023-07-25T09:49:26.297Z,4.50
2023-07-25T09:54:28.151Z,5.20
2023-07-25T09:59:30.687Z,5.40
2023-07-25T10:04:35.741Z,4.50
2023-07-25T10:09:38.231Z,3.70
2023-07-25T10:14:40.099Z,7.40
2023-07-25T10:19:53.571Z,8.50
2023-07-25T10:24:55.940Z,6.00
2023-07-25T10:30:02.676Z,6.50
2023-07-25T10:35:05.640Z,9.20
2023-07-25T10:40:14.192Z,7.40
2023-07-25T10:45:28.118Z,7.00
2023-07-25T10:50:53.145Z,6.60
2023-07-25T10:56:14.265Z,7.00
2023-07-25T11:01:38.410Z,7.30
2023-07-25T11:06:40.618Z,6.30
2023-07-25T11:11:47.632Z,8.60
2023-07-25T11:16:51.802Z,6.20
2023-07-25T11:21:54.060Z,6.80
2023-07-25T11:26:55.860Z,6.10
2023-07-25T11:37:12.552Z,6.40
2023-07-25T11:42:15.695Z,6.50
2023-07-25T11:47:17.554Z,5.60
2023-07-25T11:52:21.100Z,5.50
2023-07-25T11:57:22.975Z,4.40
2023-07-25T12:02:25.983Z,4.80
2023-07-25T12:07:28.039Z,12.10
2023-07-25T12:12:30.029Z,6.30
2023-07-25T12:22:47.040Z,8.80
2023-07-25T12:27:50.034Z,6.80
2023-07-25T12:32:52.865Z,5.40
2023-07-25T12:37:54.829Z,6.40
2023-07-25T12:42:56.739Z,6.20
2023-07-25T12:47:58.575Z,5.20
2023-07-25T12:53:00.443Z,6.50
2023-07-25T12:58:02.890Z,4.70
2023-07-25T13:03:05.262Z,6.00
2023-07-25T13:08:07.290Z,5.30
2023-07-25T13:13:09.154Z,7.90
2023-07-25T13:18:11.280Z,5.10
2023-07-25T13:23:14.874Z,8.00
2023-07-25T13:28:17.872Z,4.40
2023-07-25T13:33:20.721Z,8.80
2023-07-25T13:38:22.694Z,6.20
2023-07-25T13:43:24.740Z,5.60
2023-07-25T13:48:26.786Z,7.00
2023-07-25T13:53:28.582Z,5.50
2023-07-25T13:58:30.468Z,6.50
2023-07-25T14:03:33.487Z,8.00
2023-07-25T14:08:35.346Z,5.90
2023-07-25T14:13:37.300Z,6.30
2023-07-25T14:18:39.120Z,6.50
2023-07-25T14:23:41.016Z,4.60
2023-07-25T14:28:43.347Z,6.20
2023-07-25T14:33:45.181Z,4.70
2023-07-25T14:39:16.038Z,5.40
2023-07-25T14:44:27.820Z,8.00
2023-07-25T14:49:29.714Z,5.20
2023-07-25T14:54:31.880Z,4.80
2023-07-25T14:59:33.887Z,4.20
2023-07-25T15:04:35.850Z,5.30
2023-07-25T15:09:37.884Z,4.90
2023-07-25T15:14:39.696Z,3.70
2023-07-25T15:19:41.527Z,3.80
2023-07-25T15:24:43.434Z,5.20
2023-07-25T15:29:45.326Z,4.70
2023-07-25T15:39:51.444Z,8.60
2023-07-25T15:44:53.337Z,5.30
2023-07-25T15:49:55.470Z,5.20
2023-07-25T15:54:58.835Z,6.10
2023-07-25T16:00:00.697Z,4.20
2023-07-25T16:05:02.947Z,5.30
2023-07-25T16:10:06.617Z,6.00
2023-07-25T16:15:09.178Z,7.40
2023-07-25T16:20:11.644Z,7.10
2023-07-25T16:25:13.537Z,4.90
2023-07-25T16:30:15.846Z,5.50
2023-07-25T16:35:18.001Z,5.00
2023-07-25T16:40:20.597Z,5.60
2023-07-25T16:45:22.399Z,4.40
2023-07-25T16:50:24.740Z,4.80
2023-07-25T16:55:26.710Z,4.90
2023-07-25T17:00:29.203Z,5.30
2023-07-25T17:05:31.418Z,4.50
2023-07-25T17:10:33.401Z,7.20
2023-07-25T17:15:35.762Z,7.70
2023-07-25T17:20:40.651Z,6.90
2023-07-25T17:25:44.684Z,5.50
2023-07-25T17:30:46.821Z,8.60
2023-07-25T17:35:48.847Z,8.30
2023-07-25T17:40:50.747Z,6.20
2023-07-25T17:45:52.632Z,6.70
2023-07-25T17:50:54.503Z,7.00
2023-07-25T17:55:56.313Z,8.90
2023-07-25T18:00:58.601Z,9.30
2023-07-25T18:06:00.766Z,11.60
2023-07-25T18:11:02.769Z,6.80
2023-07-25T18:16:04.842Z,6.20
2023-07-25T18:21:09.187Z,7.60
2023-07-25T18:26:12.161Z,9.20
2023-07-25T18:31:14.027Z,9.50
2023-07-25T18:36:15.865Z,6.80
2023-07-25T18:41:17.659Z,8.30
2023-07-25T18:46:19.502Z,7.70
2023-07-25T18:51:21.374Z,8.70
2023-07-25T18:56:23.323Z,7.80
2023-07-25T19:01:25.443Z,7.50
2023-07-25T19:06:27.364Z,8.10
2023-07-25T19:11:29.269Z,8.00
2023-07-25T19:16:31.495Z,8.70
2023-07-25T19:21:33.673Z,10.00
2023-07-25T19:26:37.368Z,9.00
2023-07-25T19:31:40.190Z,11.30
2023-07-25T19:36:41.948Z,10.30
2023-07-25T19:41:44.440Z,10.70
2023-07-25T19:46:46.506Z,10.40
2023-07-25T19:51:48.439Z,9.20
2023-07-25T19:56:50.248Z,13.20
2023-07-25T20:01:52.044Z,11.10
2023-07-25T20:06:53.909Z,14.70
2023-07-25T20:11:55.929Z,9.00
2023-07-25T20:16:57.934Z,12.20
2023-07-25T20:21:59.946Z,15.80
2023-07-25T20:27:01.875Z,12.50
2023-07-25T20:32:03.924Z,11.20
2023-07-25T20:37:07.925Z,10.20
2023-07-25T20:42:09.864Z,16.20
2023-07-25T20:47:11.796Z,14.60
2023-07-25T20:52:13.862Z,11.00
2023-07-25T20:57:15.725Z,10.30
2023-07-25T21:02:17.565Z,11.60
2023-07-25T21:07:19.413Z,10.50
2023-07-25T21:12:21.461Z,13.00
2023-07-25T21:17:23.549Z,11.70
2023-07-25T21:22:25.375Z,9.50
2023-07-25T21:27:27.236Z,13.00
2023-07-25T21:32:29.068Z,12.10
2023-07-25T21:37:31.052Z,11.50
2023-07-25T21:42:32.939Z,9.10
2023-07-25T21:47:34.873Z,10.50
2023-07-25T21:52:36.719Z,12.60
2023-07-25T21:57:38.513Z,11.40
2023-07-25T22:02:40.994Z,12.10
2023-07-25T22:07:42.843Z,8.70
2023-07-25T22:12:47.776Z,9.20
2023-07-25T22:17:49.849Z,11.70
2023-07-25T22:22:51.960Z,9.50
2023-07-25T22:27:55.412Z,8.90
2023-07-25T22:32:57.352Z,8.60
2023-07-25T22:38:00.039Z,10.00
2023-07-25T22:43:01.965Z,10.50
2023-07-25T22:48:04.006Z,13.60
2023-07-25T22:53:07.444Z,10.50
2023-07-25T22:58:09.839Z,8.50
2023-07-25T23:03:11.876Z,10.40
2023-07-25T23:08:17.152Z,15.40
2023-07-25T23:13:19.226Z,8.20
2023-07-25T23:18:21.117Z,10.00
2023-07-25T23:23:23.067Z,8.70
2023-07-25T23:28:25.224Z,11.40
2023-07-25T23:33:28.929Z,8.70
2023-07-25T23:38:30.894Z,8.70
2023-07-25T23:43:32.784Z,10.20
2023-07-25T23:48:36.846Z,12.60
2023-07-25T23:53:38.833Z,9.80
2023-07-25T23:58:40.636Z,11.60
